Time;durP1;ratioP1;P1;durP2;ratioP2;P2;SDS_P1;SDS_P2;PMS_P1;PMS_P2;Temp;Humidity;BMP_temperature;BMP_pressure;BME280_temperature;BME280_humidity;BME280_pressure;Samples;Min_cycle;Max_cycle;Signal;HPM_P1;HPM_P2
2021/12/28 00:01:17;;;;;;;32.50;14.60;;;;;;;-6.53;81.64;97941.63;1742578;81;25681;-65
2021/12/28 00:03:45;;;;;;;58.52;21.00;;;;;;;-6.52;81.69;97938.43;1743184;81;25722;-63
2021/12/28 00:06:14;;;;;;;47.45;18.52;;;;;;;-6.51;81.82;97944.08;1743113;81;25611;-65
2021/12/28 00:08:40;;;;;;;61.60;24.37;;;;;;;-6.49;81.76;97942.81;1743059;81;25658;-65
2021/12/28 00:11:09;;;;;;;36.00;13.78;;;;;;;-6.48;81.71;97939.11;1742875;82;28246;-66
2021/12/28 00:13:38;;;;;;;44.85;17.95;;;;;;;-6.50;81.57;97943.86;1743037;82;25595;-66
2021/12/28 00:18:35;;;;;;;21.93;10.65;;;;;;;-6.54;81.67;97935.98;1742942;81;25586;-61
2021/12/28 00:21:04;;;;;;;67.37;24.60;;;;;;;-6.52;81.75;97939.77;1743073;81;25412;-61
2021/12/28 00:23:40;;;;;;;58.05;23.18;;;;;;;-6.55;81.78;97937.03;1743150;82;27022;-61
2021/12/28 00:26:13;;;;;;;42.62;17.37;;;;;;;-6.55;81.81;97937.86;1742895;82;25420;-61
2021/12/28 00:28:42;;;;;;;49.25;20.50;;;;;;;-6.55;81.68;97939.70;1743077;82;25646;-62
2021/12/28 00:31:11;;;;;;;55.80;21.57;;;;;;;-6.53;81.83;97936.30;1742961;81;25459;-67
2021/12/28 00:33:38;;;;;;;58.87;21.62;;;;;;;-6.53;81.73;97934.14;1742839;81;25570;-61
2021/12/28 00:36:05;;;;;;;48.35;17.23;;;;;;;-6.56;81.66;97938.08;1743367;81;27478;-60
2021/12/28 00:38:32;;;;;;;55.17;21.37;;;;;;;-6.59;81.84;97932.64;1742883;82;25408;-62
2021/12/28 00:41:02;;;;;;;47.30;18.57;;;;;;;-6.60;81.97;97932.86;1742740;82;25471;-61
2021/12/28 00:43:31;;;;;;;53.87;19.50;;;;;;;-6.62;81.88;97929.08;1743060;82;25466;-65
2021/12/28 00:45:59;;;;;;;39.48;14.20;;;;;;;-6.65;82.08;97928.19;1743176;81;25665;-60
2021/12/28 00:48:25;;;;;;;45.17;17.82;;;;;;;-6.66;82.14;97933.77;1742724;82;27328;-62
2021/12/28 00:50:52;;;;;;;39.90;15.88;;;;;;;-6.67;82.19;97938.27;1742791;81;25469;-62
2021/12/28 00:53:18;;;;;;;40.35;18.40;;;;;;;-6.68;82.11;97936.66;1742884;81;25696;-63
2021/12/28 00:55:45;;;;;;;48.87;20.25;;;;;;;-6.72;82.28;97938.10;1742996;81;25536;-61
2021/12/28 00:58:11;;;;;;;38.42;14.47;;;;;;;-6.73;82.42;97934.64;1742657;82;25396;-60
2021/12/28 01:00:40;;;;;;;52.05;18.95;;;;;;;-6.75;82.51;97931.37;1750384;81;27478;-61
2021/12/28 01:03:08;;;;;;;35.28;13.05;;;;;;;-6.74;82.67;97934.33;1750983;82;25851;-64
2021/12/28 01:05:42;;;;;;;70.92;25.50;;;;;;;-6.72;82.63;97927.44;1750971;82;25610;-61
2021/12/28 01:08:09;;;;;;;38.13;14.95;;;;;;;-6.76;82.58;97930.25;1751022;82;25427;-61
2021/12/28 01:10:43;;;;;;;33.63;11.45;;;;;;;-6.77;82.84;97929.43;1751164;82;25649;-63
2021/12/28 01:13:11;;;;;;;50.70;19.82;;;;;;;-6.75;82.84;97935.37;1750989;81;27601;-66
2021/12/28 01:15:39;;;;;;;40.05;15.25;;;;;;;-6.78;82.82;97927.81;1750583;82;25411;-65
2021/12/28 01:18:05;;;;;;;39.38;16.40;;;;;;;-6.77;82.82;97918.77;1750637;82;25685;-62
2021/12/28 01:20:32;;;;;;;25.97;11.00;;;;;;;-6.75;82.79;97916.72;1750742;81;25684;-65
2021/12/28 01:22:59;;;;;;;41.65;13.98;;;;;;;-6.75;82.87;97913.22;1751008;81;25575;-63
2021/12/28 01:25:25;;;;;;;38.35;14.53;;;;;;;-6.78;82.98;97909.66;1751100;82;27644;-66
2021/12/28 01:27:52;;;;;;;52.65;20.77;;;;;;;-6.80;83.08;97908.55;1750658;81;27083;-66
2021/12/28 01:30:22;;;;;;;50.15;21.00;;;;;;;-6.77;83.08;97900.12;1750721;81;25579;-66
2021/12/28 01:32:50;;;;;;;45.08;18.00;;;;;;;-6.74;83.03;97901.02;1750921;82;26190;-61
2021/12/28 01:35:18;;;;;;;46.50;17.75;;;;;;;-6.76;82.92;97893.78;1751190;82;25693;-64
2021/12/28 01:37:46;;;;;;;45.15;16.27;;;;;;;-6.75;82.97;97892.73;1750812;81;27447;-62
2021/12/28 01:40:17;;;;;;;32.85;13.45;;;;;;;-6.73;83.01;97889.34;1750438;81;25670;-61
2021/12/28 01:43:03;;;;;;;23.12;9.85;;;;;;;-6.74;83.11;97890.36;1750986;82;25601;-61
2021/12/28 01:45:50;;;;;;;34.58;14.45;;;;;;;-6.76;83.16;97887.63;1749436;81;25609;-65
2021/12/28 01:48:24;;;;;;;29.25;13.80;;;;;;;-6.76;83.16;97889.78;1751176;82;25732;-62
2021/12/28 01:50:55;;;;;;;26.97;11.18;;;;;;;-6.77;83.25;97886.80;1750941;81;27369;-61
2021/12/28 01:53:22;;;;;;;38.33;14.23;;;;;;;-6.80;83.40;97896.05;1751034;81;25616;-61
2021/12/28 01:55:52;;;;;;;45.80;19.50;;;;;;;-6.82;83.46;97896.78;1750691;82;25626;-60
2021/12/28 01:58:19;;;;;;;40.73;16.20;;;;;;;-6.80;83.35;97891.23;1750521;82;25634;-61
2021/12/28 02:00:48;;;;;;;47.67;19.20;;;;;;;-6.75;83.26;97902.56;1750609;81;25444;-61
2021/12/28 02:03:18;;;;;;;47.27;17.20;;;;;;;-6.74;83.27;97896.22;1750944;82;27377;-63
2021/12/28 02:05:45;;;;;;;29.52;14.55;;;;;;;-6.71;83.28;97896.58;1751228;81;25610;-62
2021/12/28 02:08:14;;;;;;;44.55;17.05;;;;;;;-6.70;83.22;97888.08;1750559;81;25448;-61
2021/12/28 02:10:44;;;;;;;16.32;8.58;;;;;;;-6.68;83.05;97897.47;1750706;82;25656;-62
2021/12/28 02:13:10;;;;;;;39.95;14.98;;;;;;;-6.68;83.09;97894.80;1750666;81;25657;-63
2021/12/28 02:15:37;;;;;;;47.60;18.07;;;;;;;-6.66;83.08;97887.92;1750606;82;29523;-61
2021/12/28 02:18:10;;;;;;;34.85;13.38;;;;;;;-6.65;83.01;97885.55;1750610;82;25594;-61
2021/12/28 02:20:37;;;;;;;26.15;11.50;;;;;;;-6.65;83.01;97880.22;1750969;82;25494;-61
2021/12/28 02:23:05;;;;;;;37.80;15.23;;;;;;;-6.67;83.14;97882.31;1750989;81;25407;-61
2021/12/28 02:25:32;;;;;;;40.40;15.50;;;;;;;-6.69;83.20;97877.70;1750681;81;25443;-63
2021/12/28 02:28:00;;;;;;;44.25;18.17;;;;;;;-6.68;83.26;97882.02;1750758;82;27516;-63
2021/12/28 02:30:26;;;;;;;37.93;14.45;;;;;;;-6.65;83.26;97884.22;1750802;82;25669;-60
2021/12/28 02:32:53;;;;;;;46.80;16.60;;;;;;;-6.58;83.30;97885.49;1750650;82;25693;-63
2021/12/28 02:35:25;;;;;;;34.67;12.68;;;;;;;-6.57;83.28;97885.27;1750881;81;25567;-62
2021/12/28 02:37:53;;;;;;;34.25;14.35;;;;;;;-6.55;83.19;97895.71;1750949;81;25629;-61
2021/12/28 02:40:23;;;;;;;14.95;6.78;;;;;;;-6.50;83.27;97884.39;1751027;82;27462;-61
2021/12/28 02:42:51;;;;;;;43.87;17.25;;;;;;;-6.46;83.32;97875.73;1751090;82;25806;-60
2021/12/28 02:45:28;;;;;;;35.30;13.48;;;;;;;-6.38;83.17;97877.80;1750840;82;25668;-65
2021/12/28 02:47:55;;;;;;;36.48;14.78;;;;;;;-6.30;83.06;97877.51;1751003;82;25614;-65
2021/12/28 02:50:29;;;;;;;29.32;13.15;;;;;;;-6.29;83.03;97887.13;1750563;81;25680;-62
2021/12/28 02:52:56;;;;;;;46.77;17.20;;;;;;;-6.26;83.02;97872.02;1751256;82;27815;-63
2021/12/28 02:55:26;;;;;;;20.20;8.18;;;;;;;-6.23;83.00;97867.56;1750852;82;25551;-61
2021/12/28 02:58:00;;;;;;;30.05;12.28;;;;;;;-6.16;83.04;97864.84;1751157;81;25416;-60
2021/12/28 03:00:34;;;;;;;39.33;16.52;;;;;;;-6.18;82.82;97857.56;1750622;81;25681;-62
2021/12/28 03:03:17;;;;;;;32.25;14.20;;;;;;;-6.21;83.04;97852.17;1751040;81;25617;-66
2021/12/28 03:05:46;;;;;;;16.67;7.50;;;;;;;-6.20;83.11;97859.63;1751002;81;27440;-64
2021/12/28 03:08:15;;;;;;;35.90;15.23;;;;;;;-6.15;83.04;97853.11;1750765;82;25480;-65
2021/12/28 03:10:44;;;;;;;29.23;12.25;;;;;;;-6.16;82.96;97859.50;1750858;81;25467;-61
2021/12/28 03:13:24;;;;;;;40.98;16.17;;;;;;;-6.16;82.88;97862.16;1750845;81;25672;-60
2021/12/28 03:15:52;;;;;;;35.73;12.67;;;;;;;-6.21;82.96;97853.50;1750187;81;25623;-63
2021/12/28 03:18:19;;;;;;;45.03;16.87;;;;;;;-6.25;82.98;97852.30;1750487;82;27547;-63
2021/12/28 03:20:47;;;;;;;31.57;12.18;;;;;;;-6.27;83.09;97848.23;1751046;81;25753;-61
2021/12/28 03:23:17;;;;;;;37.80;14.63;;;;;;;-6.27;83.18;97851.73;1750748;81;25594;-60
2021/12/28 03:25:44;;;;;;;39.42;15.45;;;;;;;-6.28;83.12;97844.75;1750697;81;25404;-60
2021/12/28 03:28:25;;;;;;;31.87;13.03;;;;;;;-6.28;83.18;97850.62;1751365;81;25407;-61
2021/12/28 03:30:54;;;;;;;23.60;9.78;;;;;;;-6.31;83.16;97850.53;1751395;82;27378;-60
2021/12/28 03:33:24;;;;;;;39.65;14.50;;;;;;;-6.32;83.24;97851.06;1750878;82;25531;-64
2021/12/28 03:35:51;;;;;;;19.48;9.73;;;;;;;-6.32;83.19;97844.91;1751100;81;25678;-59
2021/12/28 03:38:19;;;;;;;45.38;16.85;;;;;;;-6.32;83.23;97847.58;1751032;81;25673;-61
2021/12/28 03:40:46;;;;;;;16.73;7.87;;;;;;;-6.32;83.10;97843.06;1751027;81;25677;-60
2021/12/28 03:43:12;;;;;;;34.90;13.38;;;;;;;-6.30;83.06;97843.64;1750719;82;29608;-60
2021/12/28 03:45:38;;;;;;;38.70;15.63;;;;;;;-6.30;83.14;97840.17;1751074;81;25468;-60
2021/12/28 03:48:06;;;;;;;34.03;15.80;;;;;;;-6.31;83.12;97841.19;1751009;81;25736;-60
2021/12/28 03:50:34;;;;;;;35.60;13.30;;;;;;;-6.31;83.18;97839.86;1750720;82;25649;-59
2021/12/28 03:53:02;;;;;;;44.38;16.77;;;;;;;-6.33;83.14;97838.75;1751016;82;25455;-60
2021/12/28 03:55:28;;;;;;;22.35;10.20;;;;;;;-6.34;83.07;97844.30;1751314;81;27617;-60
2021/12/28 03:57:56;;;;;;;47.15;18.42;;;;;;;-6.33;83.17;97845.41;1750956;81;25781;-61
2021/12/28 04:00:24;;;;;;;32.80;13.32;;;;;;;-6.37;83.13;97842.91;1750847;81;25717;-62
2021/12/28 04:02:51;;;;;;;42.27;17.45;;;;;;;-6.37;83.33;97849.58;1751038;81;25597;-62
2021/12/28 04:05:18;;;;;;;22.87;9.53;;;;;;;-6.36;83.27;97847.73;1750845;82;25672;-65
2021/12/28 04:07:46;;;;;;;39.78;15.70;;;;;;;-6.38;83.22;97850.63;1750699;82;27472;-60
2021/12/28 04:10:15;;;;;;;49.30;18.45;;;;;;;-6.35;83.11;97852.02;1750971;82;25440;-65
2021/12/28 04:12:43;;;;;;;53.25;20.20;;;;;;;-6.35;83.12;97850.69;1750726;82;25467;-61
2021/12/28 04:15:14;;;;;;;35.90;14.35;;;;;;;-6.34;83.12;97854.97;1750779;82;25639;-61
2021/12/28 04:17:41;;;;;;;45.28;18.00;;;;;;;-6.35;83.07;97848.02;1751005;82;32119;-65
2021/12/28 04:20:13;;;;;;;28.42;11.45;;;;;;;-6.39;83.04;97844.18;1750770;82;29548;-62
2021/12/28 04:22:40;;;;;;;29.40;11.68;;;;;;;-6.45;83.18;97853.89;1750667;82;27103;-62
2021/12/28 04:25:08;;;;;;;32.80;13.28;;;;;;;-6.46;83.32;97855.73;1750688;82;25594;-65
2021/12/28 04:27:35;;;;;;;41.73;16.85;;;;;;;-6.46;83.39;97853.06;1751110;81;25716;-65
2021/12/28 04:30:04;;;;;;;45.58;16.20;;;;;;;-6.47;83.43;97849.29;1750719;81;25578;-60
2021/12/28 04:32:30;;;;;;;46.40;18.12;;;;;;;-6.47;83.56;97839.96;1751024;81;27374;-64
2021/12/28 04:34:56;;;;;;;25.02;12.25;;;;;;;-6.48;83.58;97843.13;1750729;82;25581;-61
2021/12/28 04:37:23;;;;;;;34.05;13.08;;;;;;;-6.48;83.70;97847.13;1750857;82;25609;-59
2021/12/28 04:39:49;;;;;;;31.82;13.32;;;;;;;-6.49;83.64;97832.19;1750617;82;25700;-63
2021/12/28 04:42:15;;;;;;;14.83;7.10;;;;;;;-6.50;83.76;97837.23;1750654;82;25409;-62
2021/12/28 04:44:41;;;;;;;31.97;13.93;;;;;;;-6.51;83.86;97826.79;1750759;81;27646;-60
2021/12/28 04:47:07;;;;;;;33.60;11.30;;;;;;;-6.53;84.01;97829.67;1750916;82;25652;-60
2021/12/28 04:49:34;;;;;;;37.93;12.85;;;;;;;-6.53;84.06;97823.02;1750787;82;25437;-60
2021/12/28 04:52:01;;;;;;;24.95;8.48;;;;;;;-6.52;84.02;97832.62;1750671;82;25673;-60
2021/12/28 04:54:28;;;;;;;25.72;9.70;;;;;;;-6.52;84.20;97822.47;1750986;82;25396;-60
2021/12/28 04:56:55;;;;;;;30.80;10.00;;;;;;;-6.50;84.15;97829.73;1750707;81;27482;-62
2021/12/28 04:59:21;;;;;;;46.37;14.43;;;;;;;-6.49;84.20;97824.70;1750566;82;27103;-62
2021/12/28 05:01:48;;;;;;;28.15;10.93;;;;;;;-6.49;84.05;97824.19;1750662;81;25488;-62
2021/12/28 05:04:14;;;;;;;32.55;11.22;;;;;;;-6.49;84.21;97826.03;1751071;81;25479;-61
2021/12/28 05:06:41;;;;;;;33.42;15.05;;;;;;;-6.48;84.17;97825.02;1750802;82;25428;-60
2021/12/28 05:09:11;;;;;;;22.22;7.95;;;;;;;-6.51;84.33;97816.13;1750667;81;27415;-61
2021/12/28 05:11:40;;;;;;;34.95;12.90;;;;;;;-6.50;84.26;97819.08;1750943;81;25616;-60
2021/12/28 05:14:07;;;;;;;28.87;8.93;;;;;;;-6.52;84.40;97809.97;1751054;81;25644;-59
2021/12/28 05:16:34;;;;;;;28.73;10.90;;;;;;;-6.51;84.40;97820.13;1750817;82;25688;-60
2021/12/28 05:19:04;;;;;;;40.00;15.88;;;;;;;-6.50;84.49;97818.56;1750876;82;25625;-61
2021/12/28 05:21:31;;;;;;;38.08;15.58;;;;;;;-6.48;84.48;97817.81;1751134;81;28507;-64
2021/12/28 05:23:57;;;;;;;37.13;12.58;;;;;;;-6.46;84.40;97821.58;1750576;81;25656;-63
2021/12/28 05:26:25;;;;;;;39.25;14.95;;;;;;;-6.45;84.26;97815.23;1750663;82;25656;-64
2021/12/28 05:28:52;;;;;;;24.82;8.65;;;;;;;-6.42;84.15;97822.79;1750926;81;25471;-66
2021/12/28 05:31:19;;;;;;;41.50;15.60;;;;;;;-6.40;84.06;97823.90;1750795;82;25425;-60
2021/12/28 05:33:46;;;;;;;41.55;15.83;;;;;;;-6.42;83.99;97819.58;1750730;82;27381;-64
2021/12/28 05:36:13;;;;;;;29.75;12.63;;;;;;;-6.43;84.07;97819.80;1750972;82;25432;-65
2021/12/28 05:38:40;;;;;;;29.77;11.63;;;;;;;-6.42;84.04;97810.79;1750766;81;25712;-65
2021/12/28 05:41:07;;;;;;;21.57;8.93;;;;;;;-6.42;84.05;97814.25;1750483;81;25474;-65
2021/12/28 05:43:34;;;;;;;29.60;12.93;;;;;;;-6.42;83.99;97814.25;1750697;82;25425;-66
2021/12/28 05:46:00;;;;;;;31.70;11.68;;;;;;;-6.39;84.03;97814.85;1751257;81;27432;-60
2021/12/28 05:48:26;;;;;;;33.92;13.48;;;;;;;-6.44;84.12;97811.02;1750684;81;25656;-66
2021/12/28 05:50:53;;;;;;;37.65;15.30;;;;;;;-6.46;84.14;97806.92;1750638;82;25783;-63
2021/12/28 05:53:19;;;;;;;50.63;19.50;;;;;;;-6.48;84.31;97803.14;1750493;82;25494;-63
2021/12/28 05:55:45;;;;;;;43.08;16.20;;;;;;;-6.45;84.17;97809.91;1750694;81;25466;-63
2021/12/28 05:58:12;;;;;;;31.10;11.70;;;;;;;-6.43;84.08;97803.81;1750651;82;27459;-66
2021/12/28 06:00:39;;;;;;;50.40;17.27;;;;;;;-6.41;84.01;97809.74;1750420;81;25748;-61
2021/12/28 06:03:05;;;;;;;41.20;15.18;;;;;;;-6.42;84.05;97812.91;1750658;82;25411;-61
2021/12/28 06:05:33;;;;;;;35.08;15.15;;;;;;;-6.44;84.02;97809.68;1751066;81;25474;-62
2021/12/28 06:08:00;;;;;;;35.25;14.23;;;;;;;-6.43;84.00;97813.97;1750719;82;25673;-60
2021/12/28 06:10:26;;;;;;;33.78;14.73;;;;;;;-6.44;84.06;97819.02;1751001;82;27597;-61
2021/12/28 06:12:53;;;;;;;29.52;11.90;;;;;;;-6.43;84.00;97811.30;1750573;82;25716;-61
2021/12/28 06:15:19;;;;;;;46.68;18.30;;;;;;;-6.40;83.92;97817.23;1750615;82;25475;-63
2021/12/28 06:17:45;;;;;;;21.23;9.43;;;;;;;-6.43;83.93;97811.30;1750577;82;27517;-61
2021/12/28 06:20:13;;;;;;;46.65;17.80;;;;;;;-6.44;83.97;97808.86;1750606;81;25391;-62
2021/12/28 06:22:39;;;;;;;42.90;16.05;;;;;;;-6.43;83.92;97812.63;1750919;81;27468;-62
2021/12/28 06:25:07;;;;;;;35.30;14.93;;;;;;;-6.42;83.83;97814.25;1750693;81;25597;-60
2021/12/28 06:27:34;;;;;;;36.80;14.05;;;;;;;-6.42;83.82;97813.45;1750608;82;25495;-61
2021/12/28 06:30:00;;;;;;;57.45;21.70;;;;;;;-6.45;83.89;97810.70;1750574;82;25438;-61
2021/12/28 06:32:26;;;;;;;39.75;15.45;;;;;;;-6.44;83.79;97821.67;1750762;81;25443;-61
2021/12/28 06:34:52;;;;;;;33.28;12.50;;;;;;;-6.43;83.80;97827.30;1750601;82;27419;-60
2021/12/28 06:37:19;;;;;;;49.80;19.32;;;;;;;-6.43;83.74;97827.80;1750483;82;25663;-61
2021/12/28 06:39:45;;;;;;;34.10;12.35;;;;;;;-6.42;83.74;97838.25;1750551;82;25411;-60
2021/12/28 06:42:12;;;;;;;34.60;14.33;;;;;;;-6.43;83.61;97831.80;1750567;82;25526;-60
2021/12/28 06:44:42;;;;;;;33.05;12.47;;;;;;;-6.47;83.79;97823.45;1751245;81;25665;-64
2021/12/28 06:47:06;;;;;;;22.75;10.25;;;;;;;-6.48;83.92;97817.81;1750385;81;26927;-65
2021/12/28 06:49:33;;;;;;;27.62;11.60;;;;;;;-6.47;83.90;97819.45;1750907;81;25703;-64
2021/12/28 06:51:59;;;;;;;34.78;13.03;;;;;;;-6.46;83.84;97824.25;1750616;82;25443;-61
2021/12/28 06:54:25;;;;;;;30.88;12.93;;;;;;;-6.44;83.74;97821.67;1750859;81;25621;-63
2021/12/28 06:56:51;;;;;;;32.95;12.23;;;;;;;-6.44;83.76;97818.19;1750471;82;25713;-62
2021/12/28 06:59:18;;;;;;;29.42;11.45;;;;;;;-6.44;83.84;97820.34;1750766;82;28093;-64
2021/12/28 07:01:44;;;;;;;42.23;17.70;;;;;;;-6.45;83.79;97824.03;1745503;81;27160;-63
2021/12/28 07:04:11;;;;;;;29.80;12.25;;;;;;;-6.42;83.75;97830.78;1742430;81;25710;-65
2021/12/28 07:06:37;;;;;;;47.65;19.48;;;;;;;-6.42;83.66;97827.58;1742709;82;25659;-62
2021/12/28 07:09:03;;;;;;;42.67;15.03;;;;;;;-6.39;83.72;97830.84;1742618;82;25397;-62
2021/12/28 07:11:30;;;;;;;51.90;19.05;;;;;;;-6.41;83.69;97828.41;1742981;82;27529;-66
2021/12/28 07:13:56;;;;;;;43.73;17.67;;;;;;;-6.39;83.81;97833.52;1742498;82;25589;-61
2021/12/28 07:16:23;;;;;;;30.27;11.68;;;;;;;-6.37;83.79;97832.24;1742376;82;25638;-61
2021/12/28 07:18:49;;;;;;;34.63;14.33;;;;;;;-6.31;83.79;97842.52;1742970;81;25696;-60
2021/12/28 07:21:15;;;;;;;31.07;12.33;;;;;;;-6.28;83.68;97845.28;1742627;82;25468;-66
2021/12/28 07:23:42;;;;;;;47.48;18.85;;;;;;;-6.27;83.71;97829.57;1742771;82;28437;-63
2021/12/28 07:26:08;;;;;;;35.65;13.08;;;;;;;-6.27;83.59;97825.57;1743067;81;25976;-61
2021/12/28 07:28:35;;;;;;;46.80;18.48;;;;;;;-6.30;83.87;97818.30;1742683;82;25598;-62
2021/12/28 07:31:01;;;;;;;39.83;14.55;;;;;;;-6.23;83.84;97828.08;1742568;82;27529;-63
2021/12/28 07:33:28;;;;;;;42.15;14.45;;;;;;;-6.14;83.71;97832.60;1742727;82;25440;-61
2021/12/28 07:35:54;;;;;;;31.93;12.63;;;;;;;-6.01;83.48;97840.39;1742424;81;27582;-61
2021/12/28 07:38:20;;;;;;;43.90;17.05;;;;;;;-5.95;83.10;97836.83;1742580;82;25499;-60
2021/12/28 07:40:47;;;;;;;47.33;18.62;;;;;;;-5.92;82.83;97836.88;1742740;81;25420;-60
2021/12/28 07:43:14;;;;;;;35.78;14.80;;;;;;;-5.91;82.95;97839.84;1742955;82;25409;-62
2021/12/28 07:45:40;;;;;;;23.45;9.65;;;;;;;-5.84;82.97;97846.42;1742792;82;25645;-61
2021/12/28 07:48:07;;;;;;;41.28;16.55;;;;;;;-5.82;82.74;97838.98;1742751;81;27567;-63
2021/12/28 07:50:35;;;;;;;39.78;15.35;;;;;;;-5.79;82.98;97839.36;1742552;82;25681;-61
2021/12/28 07:53:01;;;;;;;29.50;12.10;;;;;;;-5.72;82.82;97841.12;1742672;82;25432;-61
2021/12/28 07:55:28;;;;;;;39.27;16.23;;;;;;;-5.63;82.70;97840.27;1742653;81;25587;-60
2021/12/28 07:57:54;;;;;;;32.35;13.58;;;;;;;-5.64;82.77;97839.48;1742796;81;25738;-61
2021/12/28 08:00:23;;;;;;;32.20;13.05;;;;;;;-5.56;82.77;97839.13;1742601;82;27539;-61
2021/12/28 08:02:50;;;;;;;44.65;19.85;;;;;;;-5.51;82.57;97837.11;1742579;81;25881;-61
2021/12/28 08:05:18;;;;;;;45.83;19.17;;;;;;;-5.47;82.52;97835.60;1742918;81;25455;-60
2021/12/28 08:07:46;;;;;;;49.85;19.95;;;;;;;-5.41;82.58;97832.56;1742754;82;25577;-60
2021/12/28 08:10:16;;;;;;;35.52;14.45;;;;;;;-5.31;82.66;97831.97;1742817;82;25637;-60
2021/12/28 08:12:43;;;;;;;28.52;11.10;;;;;;;-5.25;82.05;97831.05;1743701;81;27645;-59
2021/12/28 08:15:11;;;;;;;31.62;13.88;;;;;;;-5.20;82.08;97831.70;1742768;81;25663;-59
2021/12/28 08:17:38;;;;;;;46.00;19.15;;;;;;;-5.17;82.11;97833.91;1742979;82;25400;-60
2021/12/28 08:20:11;;;;;;;27.85;11.78;;;;;;;-5.10;82.32;97829.80;1742663;81;25658;-60
2021/12/28 08:22:38;;;;;;;43.65;16.23;;;;;;;-5.00;82.20;97829.20;1743120;81;25744;-60
2021/12/28 08:25:08;;;;;;;46.90;17.62;;;;;;;-4.95;81.86;97823.44;1742979;82;27655;-59
2021/12/28 08:27:34;;;;;;;43.02;19.55;;;;;;;-4.81;82.22;97813.87;1743063;82;25708;-60
2021/12/28 08:30:01;;;;;;;31.93;13.43;;;;;;;-4.68;81.44;97813.62;1742686;82;25589;-61
2021/12/28 08:32:27;;;;;;;36.53;14.95;;;;;;;-4.50;80.89;97806.48;1742741;81;25666;-61
2021/12/28 08:34:54;;;;;;;35.85;14.35;;;;;;;-4.31;80.55;97803.12;1742901;81;25425;-60
2021/12/28 08:37:21;;;;;;;38.98;13.72;;;;;;;-4.12;80.22;97804.81;1742705;82;27471;-59
2021/12/28 08:39:47;;;;;;;46.35;21.20;;;;;;;-3.98;79.19;97802.11;1742926;82;25804;-60
2021/12/28 08:42:14;;;;;;;24.95;10.70;;;;;;;-4.01;78.34;97803.93;1742685;81;25448;-59
2021/12/28 08:44:41;;;;;;;35.25;13.30;;;;;;;-3.94;78.77;97796.56;1742850;82;26317;-59
2021/12/28 08:47:08;;;;;;;56.40;21.07;;;;;;;-3.87;78.10;97802.30;1742917;81;25457;-60
2021/12/28 08:49:35;;;;;;;47.80;18.73;;;;;;;-3.73;78.49;97794.77;1741811;82;26895;-62
2021/12/28 08:52:02;;;;;;;52.13;21.57;;;;;;;-3.53;78.21;97796.99;1737833;82;25851;-61
2021/12/28 08:54:29;;;;;;;28.40;13.08;;;;;;;-3.34;78.23;97801.57;1738496;82;25763;-61
2021/12/28 08:56:56;;;;;;;51.85;19.75;;;;;;;-3.06;77.87;97799.86;1742872;81;25634;-61
2021/12/28 08:59:24;;;;;;;58.42;24.65;;;;;;;-3.04;76.87;97799.09;1742944;82;25622;-61
2021/12/28 09:01:51;;;;;;;56.35;23.30;;;;;;;-3.07;76.42;97790.72;1747400;81;27414;-62
2021/12/28 09:04:19;;;;;;;57.13;22.82;;;;;;;-3.09;76.56;97779.42;1755963;81;25736;-62
2021/12/28 09:06:47;;;;;;;56.65;24.05;;;;;;;-3.09;77.01;97788.80;1756421;81;25454;-60
2021/12/28 09:09:15;;;;;;;53.58;21.73;;;;;;;-3.01;77.03;97785.72;1756216;81;25441;-60
2021/12/28 09:11:43;;;;;;;17.65;8.35;;;;;;;-3.00;76.61;97781.18;1756113;81;25641;-60
2021/12/28 09:14:11;;;;;;;32.25;13.58;;;;;;;-3.05;76.01;97771.98;1756045;81;27434;-61
2021/12/28 09:16:37;;;;;;;55.08;21.27;;;;;;;-3.10;76.29;97767.91;1736291;80;25820;-61
2021/12/28 09:19:05;;;;;;;42.35;17.55;;;;;;;-3.12;76.55;97764.66;1736573;81;25723;-60
2021/12/28 09:21:32;;;;;;;37.83;16.35;;;;;;;-3.07;76.86;97763.91;1753283;81;25973;-60
2021/12/28 09:23:59;;;;;;;44.63;19.60;;;;;;;-3.10;76.68;97755.84;1754319;81;25755;-61
2021/12/28 09:26:26;;;;;;;35.68;13.45;;;;;;;-3.13;77.02;97747.47;1755100;81;27442;-61
2021/12/28 09:28:53;;;;;;;31.87;14.43;;;;;;;-3.15;76.73;97754.42;1755098;81;25626;-60
2021/12/28 09:31:20;;;;;;;37.50;16.05;;;;;;;-3.21;76.92;97747.36;1754618;81;25737;-60
2021/12/28 09:33:47;;;;;;;37.73;16.37;;;;;;;-3.22;76.73;97743.07;1755086;81;25704;-60
2021/12/28 09:36:15;;;;;;;40.17;16.80;;;;;;;-3.25;76.89;97743.05;1755343;81;26415;-60
2021/12/28 09:38:44;;;;;;;43.05;18.25;;;;;;;-3.22;77.27;97743.89;1755222;81;27593;-60
2021/12/28 09:41:12;;;;;;;28.05;12.53;;;;;;;-3.17;77.18;97733.23;1755232;81;26010;-60
2021/12/28 09:43:40;;;;;;;35.43;15.75;;;;;;;-3.17;77.11;97732.41;1755036;81;25728;-60
2021/12/28 09:46:07;;;;;;;52.33;21.93;;;;;;;-3.16;77.47;97725.45;1754951;81;25768;-60
2021/12/28 09:48:35;;;;;;;33.00;16.23;;;;;;;-3.15;77.57;97716.38;1755004;81;25682;-60
2021/12/28 09:51:04;;;;;;;33.98;16.25;;;;;;;-3.10;77.47;97704.92;1755332;81;27358;-60
2021/12/28 09:53:30;;;;;;;40.28;16.93;;;;;;;-3.21;77.73;97707.16;1737808;81;25816;-60
2021/12/28 09:55:58;;;;;;;46.33;19.98;;;;;;;-3.25;78.01;97705.53;1755234;81;25675;-59
2021/12/28 09:58:26;;;;;;;46.58;19.80;;;;;;;-3.16;78.46;97705.36;1755085;81;25731;-60
2021/12/28 10:00:53;;;;;;;40.75;17.48;;;;;;;-3.00;77.88;97698.08;1755198;81;25681;-60
2021/12/28 10:03:20;;;;;;;23.00;9.15;;;;;;;-2.86;77.64;97703.33;1744166;81;27479;-60
2021/12/28 10:05:47;;;;;;;50.83;21.73;;;;;;;-2.71;77.27;97707.27;1741542;82;25688;-63
2021/12/28 10:08:14;;;;;;;30.45;14.15;;;;;;;-2.51;77.05;97699.97;1741786;82;26491;-62
2021/12/28 10:10:45;;;;;;;33.23;14.98;;;;;;;-2.40;76.30;97694.18;1742203;82;25777;-61
2021/12/28 10:13:21;;;;;;;22.17;9.08;;;;;;;-2.26;76.15;97694.59;1742246;81;25619;-62
2021/12/28 10:15:50;;;;;;;30.75;13.53;;;;;;;-2.08;75.32;97689.39;1741709;82;27584;-61
2021/12/28 10:18:17;;;;;;;53.20;20.77;;;;;;;-1.85;74.88;97687.95;1741949;81;25783;-62
2021/12/28 10:20:53;;;;;;;36.25;17.42;;;;;;;-1.65;75.03;97677.91;1741875;82;25749;-60
2021/12/28 10:23:25;;;;;;;33.75;14.45;;;;;;;-1.29;74.67;97694.27;1741620;82;25722;-60
2021/12/28 10:25:56;;;;;;;28.83;13.22;;;;;;;-1.06;72.81;97709.71;1741924;82;25701;-61
2021/12/28 10:28:25;;;;;;;;;;;;;;;-0.98;72.12;97714.34;1744623;82;27520;-60
2021/12/28 10:30:56;;;;;;;22.70;9.95;;;;;;;-0.81;71.58;97710.91;1741638;82;25741;-61
2021/12/28 10:33:28;;;;;;;46.58;21.25;;;;;;;-0.74;71.86;97702.61;1742174;81;25684;-61
2021/12/28 10:36:01;;;;;;;31.00;12.58;;;;;;;-0.52;72.99;97710.48;1741962;82;25631;-61
2021/12/28 10:38:33;;;;;;;45.00;20.23;;;;;;;-0.41;70.19;97703.78;1742061;82;25717;-60
2021/12/28 10:41:10;;;;;;;34.63;16.32;;;;;;;-0.44;71.18;97690.84;1741835;81;27391;-60
2021/12/28 10:43:43;;;;;;;40.85;18.70;;;;;;;-0.28;70.32;97689.84;1741600;82;25645;-60
2021/12/28 10:46:14;;;;;;;38.20;17.87;;;;;;;-0.23;69.62;97682.84;1741647;82;25686;-60
2021/12/28 10:48:50;;;;;;;37.78;18.10;;;;;;;-0.28;69.34;97676.90;1741609;81;25678;-61
2021/12/28 10:51:23;;;;;;;44.55;21.87;;;;;;;-0.20;69.91;97676.92;1742217;82;26394;-60
2021/12/28 10:54:06;;;;;;;28.75;14.70;;;;;;;-0.14;69.51;97670.46;1742246;81;28313;-60
2021/12/28 10:56:42;;;;;;;43.05;22.15;;;;;;;0.22;69.19;97671.81;1742187;81;25652;-60
2021/12/28 10:59:10;;;;;;;45.58;22.90;;;;;;;0.52;69.58;97683.38;1743306;82;25408;-62
2021/12/28 11:01:42;;;;;;;38.98;19.65;;;;;;;1.03;69.15;97673.56;1742533;81;25645;-61
2021/12/28 11:04:13;;;;;;;43.80;21.50;;;;;;;1.33;67.82;97669.94;1742866;82;25649;-61
2021/12/28 11:06:50;;;;;;;45.35;23.25;;;;;;;1.57;66.17;97659.81;1743015;82;27395;-61
2021/12/28 11:09:24;;;;;;;38.75;17.85;;;;;;;1.33;67.13;97659.14;1742905;82;25623;-61
2021/12/28 11:11:54;;;;;;;45.45;22.93;;;;;;;1.14;66.01;97650.84;1742822;82;25647;-61
2021/12/28 11:14:28;;;;;;;40.52;18.05;;;;;;;1.15;67.91;97655.14;1742852;82;26558;-60
2021/12/28 11:16:59;;;;;;;48.42;22.67;;;;;;;1.18;66.10;97643.02;1741854;81;25408;-60
2021/12/28 11:19:34;;;;;;;45.33;22.80;;;;;;;1.09;67.00;97647.62;1742729;82;27471;-61
2021/12/28 11:22:09;;;;;;;44.25;22.22;;;;;;;1.31;67.15;97651.84;1742758;82;25657;-61
2021/12/28 11:24:42;;;;;;;31.87;16.57;;;;;;;1.58;66.30;97649.83;1742730;81;25725;-61
2021/12/28 11:27:11;;;;;;;46.58;22.37;;;;;;;1.65;64.66;97650.84;1742644;82;25559;-63